Time;durP1;ratioP1;P1;durP2;ratioP2;P2;SDS_P1;SDS_P2;PMS_P1;PMS_P2;Temp;Humidity;BMP_temperature;BMP_pressure;BME280_temperature;BME280_humidity;BME280_pressure;Samples;Min_cycle;Max_cycle;Signal;HPM_P1;HPM_P2
2022/07/26 00:01:22;;;;;;;13.10;11.83;;;20.20;99.90;;;;;;5083090;28;20855;-83
2022/07/26 00:03:49;;;;;;;12.73;11.52;;;20.20;99.90;;;;;;5084504;28;20897;-84
2022/07/26 00:06:16;;;;;;;12.55;11.35;;;20.20;99.90;;;;;;5082911;28;20902;-83
2022/07/26 00:08:42;;;;;;;13.25;11.95;;;20.20;99.90;;;;;;5076811;28;20374;-82
2022/07/26 00:11:09;;;;;;;13.05;11.75;;;20.10;99.90;;;;;;5054692;28;20382;-82
2022/07/26 00:13:34;;;;;;;13.77;12.48;;;20.10;99.90;;;;;;5074238;28;20383;-82
2022/07/26 00:16:01;;;;;;;14.63;13.07;;;20.00;99.90;;;;;;5076691;28;20756;-83
2022/07/26 00:18:27;;;;;;;14.55;13.05;;;20.00;99.90;;;;;;5044502;28;20391;-83
2022/07/26 00:20:53;;;;;;;13.73;12.32;;;20.00;99.90;;;;;;5081476;28;20373;-83
2022/07/26 00:23:19;;;;;;;13.30;12.00;;;20.00;99.90;;;;;;5075529;28;20475;-82
2022/07/26 00:25:45;;;;;;;14.07;12.65;;;20.00;99.90;;;;;;5071747;28;20554;-82
2022/07/26 00:28:11;;;;;;;13.57;12.25;;;20.00;99.90;;;;;;5084322;28;20443;-83
2022/07/26 00:30:37;;;;;;;13.55;12.25;;;20.00;99.90;;;;;;5058834;28;20376;-83
2022/07/26 00:33:04;;;;;;;12.95;11.65;;;20.00;99.90;;;;;;5082580;28;20972;-84
2022/07/26 00:35:29;;;;;;;13.98;12.57;;;20.00;99.90;;;;;;5084559;28;20449;-83
2022/07/26 00:37:55;;;;;;;13.60;12.30;;;19.90;99.90;;;;;;5086834;28;20406;-83
2022/07/26 00:40:21;;;;;;;12.90;11.63;;;20.00;99.90;;;;;;5086707;28;20435;-83
2022/07/26 00:42:46;;;;;;;12.65;11.45;;;20.00;99.90;;;;;;5075318;28;20378;-83
2022/07/26 00:45:13;;;;;;;13.57;12.27;;;20.00;99.90;;;;;;5064031;28;20412;-83
2022/07/26 00:47:39;;;;;;;13.70;12.40;;;20.00;99.90;;;;;;5033912;28;20390;-83
2022/07/26 00:50:08;;;;;;;14.13;12.48;;;20.00;99.90;;;;;;5035103;28;20435;-83
2022/07/26 00:52:34;;;;;;;13.07;11.82;;;20.00;99.90;;;;;;5053286;28;20392;-84
2022/07/26 00:54:59;;;;;;;12.63;11.53;;;20.00;99.90;;;;;;5053203;28;20881;-83
2022/07/26 00:57:25;;;;;;;14.15;12.70;;;20.00;99.90;;;;;;5052697;28;20457;-83
2022/07/26 00:59:51;;;;;;;13.40;12.10;;;20.00;99.90;;;;;;5052100;28;20368;-83
2022/07/26 01:02:17;;;;;;;14.25;12.75;;;20.00;99.90;;;;;;5050979;28;20777;-83
2022/07/26 01:04:44;;;;;;;14.85;13.30;;;20.00;99.90;;;;;;5053104;28;20417;-83
2022/07/26 01:07:12;;;;;;;15.07;13.57;;;19.90;99.90;;;;;;5055530;28;20407;-82
2022/07/26 01:09:38;;;;;;;14.83;13.03;;;19.90;99.90;;;;;;5051531;28;20787;-83
2022/07/26 01:12:04;;;;;;;13.68;12.27;;;20.00;99.90;;;;;;5036221;28;20376;-83
2022/07/26 01:14:30;;;;;;;14.57;13.07;;;20.00;99.90;;;;;;5052098;28;20375;-83
2022/07/26 01:16:56;;;;;;;14.95;13.45;;;19.90;99.90;;;;;;5051403;28;20438;-83
2022/07/26 01:19:22;;;;;;;14.27;12.85;;;19.90;99.90;;;;;;5034789;28;20868;-83
2022/07/26 01:21:49;;;;;;;14.10;12.63;;;19.90;99.90;;;;;;5054285;28;20407;-83
2022/07/26 01:24:15;;;;;;;14.70;13.23;;;19.80;99.90;;;;;;5054313;28;20376;-83
2022/07/26 01:26:40;;;;;;;13.90;12.50;;;19.80;99.90;;;;;;5053558;28;20367;-83
2022/07/26 01:29:07;;;;;;;15.98;13.45;;;19.80;99.90;;;;;;5053518;28;20404;-83
2022/07/26 01:31:33;;;;;;;13.70;12.35;;;19.80;99.90;;;;;;5035771;28;20426;-83
2022/07/26 01:33:58;;;;;;;15.50;12.82;;;19.80;99.90;;;;;;5035307;28;20396;-83
2022/07/26 01:36:24;;;;;;;13.47;12.10;;;19.80;99.90;;;;;;5035522;28;20380;-83
2022/07/26 01:38:50;;;;;;;13.40;12.10;;;19.80;99.90;;;;;;5052987;28;20444;-83
2022/07/26 01:41:15;;;;;;;14.23;12.47;;;19.80;99.90;;;;;;5034474;28;20408;-83
2022/07/26 01:43:41;;;;;;;14.85;12.73;;;19.70;99.90;;;;;;5053266;28;20447;-83
2022/07/26 01:46:08;;;;;;;14.45;12.98;;;19.70;99.90;;;;;;5053125;28;20850;-84
2022/07/26 01:48:34;;;;;;;13.65;12.07;;;19.70;99.90;;;;;;5035097;28;20383;-83
2022/07/26 01:50:59;;;;;;;13.23;11.82;;;19.60;99.90;;;;;;5035936;28;20730;-83
2022/07/26 01:53:25;;;;;;;14.97;13.47;;;19.50;99.90;;;;;;5034188;28;20380;-83
2022/07/26 01:55:51;;;;;;;14.18;12.68;;;19.40;99.90;;;;;;5053550;28;20375;-83
2022/07/26 01:58:17;;;;;;;15.57;14.07;;;19.40;99.90;;;;;;5036078;28;20394;-83
2022/07/26 02:00:42;;;;;;;16.17;14.05;;;19.30;99.90;;;;;;5051940;28;20387;-83
2022/07/26 02:03:08;;;;;;;16.10;13.90;;;19.10;99.90;;;;;;5033709;28;20375;-82
2022/07/26 02:05:34;;;;;;;16.63;14.82;;;19.10;99.90;;;;;;5051490;28;20404;-81
2022/07/26 02:07:59;;;;;;;17.90;16.10;;;19.00;99.90;;;;;;5050954;28;20372;-83
2022/07/26 02:10:59;;;;;;;19.45;16.73;;;18.90;99.90;;;;;;5032647;28;20388;-82
2022/07/26 02:13:12;;;;;;;19.25;17.25;;;18.90;99.90;;;;;;5050123;28;20868;-82
2022/07/26 02:15:38;;;;;;;19.30;17.30;;;18.90;99.90;;;;;;5049554;28;20376;-82
2022/07/26 02:18:04;;;;;;;20.35;18.25;;;18.90;99.90;;;;;;5032812;28;20525;-83
2022/07/26 02:20:32;;;;;;;19.83;17.73;;;18.80;99.90;;;;;;5051143;28;20425;-82
2022/07/26 02:22:59;;;;;;;21.53;17.87;;;18.80;99.90;;;;;;5032646;28;20384;-82
2022/07/26 02:25:25;;;;;;;19.98;17.80;;;18.70;99.90;;;;;;5033095;28;20759;-83
2022/07/26 02:27:51;;;;;;;19.53;17.43;;;18.70;99.90;;;;;;5051396;28;20394;-81
2022/07/26 02:30:16;;;;;;;20.58;18.23;;;18.70;99.90;;;;;;5033125;28;20768;-82
2022/07/26 02:32:42;;;;;;;21.27;18.77;;;18.60;99.90;;;;;;5031816;28;20380;-81
2022/07/26 02:35:09;;;;;;;20.43;17.67;;;18.50;99.90;;;;;;5032145;28;20494;-83
2022/07/26 02:37:34;;;;;;;21.70;18.20;;;18.50;99.90;;;;;;5033945;28;20387;-82
2022/07/26 02:40:01;;;;;;;21.00;18.83;;;18.50;99.90;;;;;;5052041;28;20384;-83
2022/07/26 02:42:27;;;;;;;21.63;17.83;;;18.40;99.90;;;;;;5052244;28;20375;-82
2022/07/26 02:44:52;;;;;;;20.60;18.20;;;18.40;99.90;;;;;;5035066;28;20415;-82
2022/07/26 02:47:18;;;;;;;22.88;17.83;;;18.40;99.90;;;;;;5053462;28;20484;-82
2022/07/26 02:49:44;;;;;;;19.65;17.35;;;18.40;99.90;;;;;;5053016;28;20425;-83
2022/07/26 02:52:10;;;;;;;18.10;16.20;;;18.30;99.90;;;;;;5051084;28;20380;-83
2022/07/26 02:54:35;;;;;;;17.80;16.00;;;18.30;99.90;;;;;;5050888;28;20391;-82
2022/07/26 02:57:01;;;;;;;17.03;15.23;;;18.30;99.90;;;;;;5052433;28;20370;-83
2022/07/26 02:59:27;;;;;;;16.77;14.80;;;18.20;99.90;;;;;;5050134;28;20387;-82
2022/07/26 03:01:52;;;;;;;21.80;15.93;;;18.20;99.90;;;;;;5048462;28;20387;-83
2022/07/26 03:04:18;;;;;;;15.87;14.13;;;18.10;99.90;;;;;;5047522;28;20395;-83
2022/07/26 03:06:44;;;;;;;16.17;14.35;;;18.00;99.90;;;;;;5049814;28;20414;-83
2022/07/26 03:09:09;;;;;;;17.27;14.20;;;18.00;99.90;;;;;;5049473;28;20380;-83
2022/07/26 03:11:35;;;;;;;18.67;14.73;;;18.00;99.90;;;;;;5047179;28;20387;-83
2022/07/26 03:14:01;;;;;;;15.73;13.97;;;18.00;99.90;;;;;;5048371;28;20387;-83
2022/07/26 03:16:26;;;;;;;17.67;15.10;;;17.90;99.90;;;;;;5050285;28;20401;-84
2022/07/26 03:18:52;;;;;;;15.27;13.67;;;17.90;99.90;;;;;;5050277;28;20383;-83
2022/07/26 03:21:18;;;;;;;16.97;15.23;;;17.90;99.90;;;;;;5049236;28;20723;-83
2022/07/26 03:23:43;;;;;;;16.80;14.38;;;17.90;99.90;;;;;;5048570;28;20440;-83
2022/07/26 03:26:09;;;;;;;17.90;14.77;;;17.80;99.90;;;;;;5051407;28;20399;-83
2022/07/26 03:28:35;;;;;;;17.07;13.83;;;17.80;99.90;;;;;;5053920;28;20384;-83
2022/07/26 03:31:01;;;;;;;15.85;13.50;;;17.80;99.90;;;;;;5053971;28;20554;-84
2022/07/26 03:33:27;;;;;;;16.25;14.55;;;17.80;99.90;;;;;;5055539;28;20379;-84
2022/07/26 03:35:53;;;;;;;15.95;13.43;;;17.70;99.90;;;;;;5053403;28;20399;-83
2022/07/26 03:38:18;;;;;;;16.23;13.53;;;17.70;99.90;;;;;;5054143;28;20394;-83
2022/07/26 03:40:44;;;;;;;15.25;12.23;;;17.70;99.90;;;;;;5055469;28;20370;-83
2022/07/26 03:43:10;;;;;;;15.03;13.40;;;17.70;99.90;;;;;;5055360;28;20718;-83
2022/07/26 03:45:35;;;;;;;14.60;12.73;;;17.70;99.90;;;;;;5054545;28;20458;-83
2022/07/26 03:48:01;;;;;;;14.13;12.63;;;17.70;99.90;;;;;;5056274;28;20379;-84
2022/07/26 03:50:27;;;;;;;17.13;12.88;;;17.70;99.90;;;;;;5054688;28;20378;-84
2022/07/26 03:52:52;;;;;;;16.53;12.97;;;17.70;99.90;;;;;;5054068;28;20722;-83
2022/07/26 03:58:02;;;;;;;14.85;11.95;;;17.60;99.90;;;;;;5055093;28;20819;-83
2022/07/26 04:00:28;;;;;;;14.02;12.07;;;17.70;99.90;;;;;;5053892;28;20486;-84
2022/07/26 04:02:54;;;;;;;13.20;11.77;;;17.70;99.90;;;;;;5035596;28;20726;-85
2022/07/26 04:05:19;;;;;;;13.90;11.95;;;17.60;99.90;;;;;;5052628;28;20457;-83
2022/07/26 04:07:45;;;;;;;15.93;11.40;;;17.60;99.90;;;;;;5034949;28;20402;-84
2022/07/26 04:10:14;;;;;;;17.00;11.37;;;17.70;99.90;;;;;;5036037;28;20800;-84
2022/07/26 04:12:40;;;;;;;13.57;10.45;;;17.60;99.90;;;;;;5035270;28;20460;-84
2022/07/26 04:15:06;;;;;;;14.32;10.82;;;17.70;99.90;;;;;;5035197;28;20952;-84
2022/07/26 04:17:39;;;;;;;11.20;10.00;;;17.70;99.90;;;;;;5036021;28;20387;-84
2022/07/26 04:20:07;;;;;;;13.52;9.25;;;17.60;99.90;;;;;;5034073;28;20388;-84
2022/07/26 04:22:34;;;;;;;11.77;9.77;;;17.60;99.90;;;;;;5052436;28;20419;-84
2022/07/26 04:25:00;;;;;;;12.23;9.83;;;17.60;99.90;;;;;;5034255;28;20493;-84
2022/07/26 04:27:26;;;;;;;14.02;9.48;;;17.60;99.90;;;;;;5034797;28;20387;-84
2022/07/26 04:29:52;;;;;;;14.13;9.90;;;17.60;99.90;;;;;;5052416;28;20360;-83
2022/07/26 04:32:17;;;;;;;12.38;9.48;;;17.60;99.90;;;;;;5052325;28;20460;-84
2022/07/26 04:34:43;;;;;;;15.90;9.60;;;17.60;99.90;;;;;;5052574;28;20734;-84
2022/07/26 04:37:09;;;;;;;11.02;8.80;;;17.70;99.90;;;;;;5051299;28;20400;-84
2022/07/26 04:39:34;;;;;;;10.83;8.83;;;17.80;99.90;;;;;;5052672;28;20441;-84
2022/07/26 04:42:00;;;;;;;13.63;8.63;;;17.80;99.90;;;;;;5053209;28;20417;-83
2022/07/26 04:44:25;;;;;;;10.80;7.63;;;17.90;99.90;;;;;;5055527;28;20949;-83
2022/07/26 04:46:51;;;;;;;11.03;7.60;;;18.10;99.90;;;;;;5055672;28;20387;-84
2022/07/26 04:49:17;;;;;;;9.57;7.22;;;18.20;99.90;;;;;;5036245;28;21078;-84
2022/07/26 04:51:42;;;;;;;9.10;6.57;;;18.40;99.90;;;;;;5053406;28;20418;-83
2022/07/26 04:54:08;;;;;;;8.20;6.68;;;18.50;99.90;;;;;;5057078;28;20372;-84
2022/07/26 04:56:33;;;;;;;6.97;5.80;;;18.70;99.90;;;;;;5037660;28;20849;-83
2022/07/26 04:58:59;;;;;;;9.63;6.35;;;18.80;99.90;;;;;;5034313;28;20885;-83
2022/07/26 05:01:24;;;;;;;9.10;6.80;;;19.00;99.90;;;;;;5053171;28;20376;-85
2022/07/26 05:03:50;;;;;;;8.40;6.07;;;19.00;99.90;;;;;;5050879;28;20424;-85
2022/07/26 05:06:16;;;;;;;8.80;6.77;;;19.10;99.90;;;;;;5032504;28;20407;-84
2022/07/26 05:08:42;;;;;;;9.63;6.47;;;19.10;99.90;;;;;;5033775;28;20943;-84
2022/07/26 05:11:09;;;;;;;8.25;6.18;;;19.20;99.90;;;;;;5032618;28;20383;-83
2022/07/26 05:13:34;;;;;;;9.43;6.70;;;19.20;99.90;;;;;;5032965;28;20391;-84
2022/07/26 05:16:00;;;;;;;9.20;6.00;;;19.20;99.90;;;;;;5050416;28;20375;-84
2022/07/26 05:18:28;;;;;;;9.90;5.70;;;19.30;99.90;;;;;;5050430;28;20387;-86
2022/07/26 05:20:53;;;;;;;6.88;5.10;;;19.30;99.90;;;;;;5049997;28;20427;-85
2022/07/26 05:23:19;;;;;;;7.83;4.80;;;19.40;99.90;;;;;;5051293;28;20461;-85
2022/07/26 05:25:45;;;;;;;8.52;4.50;;;19.50;99.90;;;;;;5033376;28;20404;-83
2022/07/26 05:28:10;;;;;;;9.73;4.60;;;19.60;99.90;;;;;;5033737;28;20391;-86
2022/07/26 05:30:36;;;;;;;9.43;4.35;;;19.70;99.90;;;;;;5051095;28;20387;-85
2022/07/26 05:33:02;;;;;;;8.83;4.60;;;19.70;99.90;;;;;;5032373;28;20795;-83
2022/07/26 05:35:28;;;;;;;7.72;4.05;;;19.70;99.90;;;;;;5050673;28;20376;-85
2022/07/26 05:37:53;;;;;;;9.40;4.50;;;19.80;99.90;;;;;;5032301;28;20893;-85
2022/07/26 05:40:19;;;;;;;6.53;3.80;;;19.80;99.90;;;;;;5050669;28;20869;-85
2022/07/26 05:42:45;;;;;;;10.55;5.03;;;19.90;99.90;;;;;;5031325;28;20381;-84
2022/07/26 05:45:10;;;;;;;8.13;4.10;;;20.00;99.90;;;;;;5050065;28;20453;-84
2022/07/26 05:47:36;;;;;;;9.02;4.13;;;20.00;99.90;;;;;;5033841;28;20383;-83
2022/07/26 05:50:03;;;;;;;9.90;4.30;;;20.10;99.90;;;;;;5051286;28;20391;-85
2022/07/26 05:52:29;;;;;;;9.20;3.63;;;20.10;99.90;;;;;;5031013;28;20750;-86
2022/07/26 05:54:54;;;;;;;9.97;3.57;;;20.20;99.90;;;;;;5049771;28;20380;-83
2022/07/26 05:57:20;;;;;;;10.13;4.05;;;20.30;99.90;;;;;;5049894;28;20368;-84
2022/07/26 05:59:45;;;;;;;10.88;3.75;;;20.20;99.90;;;;;;5032379;28;20386;-84
2022/07/26 06:02:11;;;;;;;8.40;3.40;;;20.10;99.90;;;;;;5031784;28;20383;-84
2022/07/26 06:04:37;;;;;;;8.90;3.67;;;20.20;99.90;;;;;;5031855;28;20446;-84
2022/07/26 06:07:03;;;;;;;11.18;3.80;;;20.30;99.90;;;;;;5049143;28;20391;-85
2022/07/26 06:09:28;;;;;;;6.93;3.30;;;20.30;99.90;;;;;;5049489;28;20376;-84
2022/07/26 06:11:54;;;;;;;8.57;3.27;;;20.40;99.90;;;;;;5049369;28;20382;-83
2022/07/26 06:14:19;;;;;;;8.07;3.67;;;20.40;99.90;;;;;;5049677;28;20410;-83
2022/07/26 06:16:46;;;;;;;8.23;3.33;;;20.30;99.90;;;;;;5031451;28;20476;-84
2022/07/26 06:19:12;;;;;;;9.47;3.53;;;20.30;99.90;;;;;;5031655;28;20412;-85
2022/07/26 06:21:38;;;;;;;9.57;3.23;;;20.30;99.90;;;;;;5030411;28;20944;-84
2022/07/26 06:24:04;;;;;;;7.07;3.17;;;20.40;99.90;;;;;;5049333;28;20400;-85
2022/07/26 06:26:29;;;;;;;5.50;2.90;;;20.50;99.90;;;;;;5031040;28;20403;-86
2022/07/26 06:28:55;;;;;;;7.47;3.37;;;20.50;99.90;;;;;;5030938;28;20392;-85
2022/07/26 06:31:21;;;;;;;8.60;2.90;;;20.60;99.90;;;;;;5031027;28;20387;-85
2022/07/26 06:33:47;;;;;;;7.68;3.35;;;20.60;99.90;;;;;;5031451;28;20507;-84
2022/07/26 06:36:13;;;;;;;8.50;2.80;;;20.70;99.90;;;;;;5030926;28;20467;-84
2022/07/26 06:38:39;;;;;;;9.70;2.70;;;20.90;99.90;;;;;;5031222;28;20929;-84
2022/07/26 06:41:05;;;;;;;9.77;2.97;;;21.10;99.90;;;;;;5048928;28;20410;-85
2022/07/26 06:43:33;;;;;;;6.13;2.70;;;;;;;;;;5031528;28;20429;-84
2022/07/26 06:45:59;;;;;;;7.37;2.57;;;21.30;99.90;;;;;;5048840;28;20931;-85
2022/07/26 06:48:24;;;;;;;8.48;2.83;;;21.70;99.90;;;;;;5031390;28;20384;-85
2022/07/26 06:50:50;;;;;;;7.73;2.90;;;22.00;99.90;;;;;;5030886;28;20371;-85
2022/07/26 06:53:16;;;;;;;8.45;2.75;;;22.40;99.90;;;;;;5030626;28;20410;-85
2022/07/26 06:55:41;;;;;;;5.93;2.60;;;22.80;99.90;;;;;;5032192;28;20383;-84
2022/07/26 06:58:07;;;;;;;7.70;2.78;;;23.20;99.90;;;;;;5051171;28;20400;-89
2022/07/26 07:00:33;;;;;;;7.43;2.40;;;23.50;99.90;;;;;;5031726;28;20376;-85
2022/07/26 07:02:58;;;;;;;6.68;2.67;;;23.50;99.90;;;;;;5033682;28;20388;-85
2022/07/26 07:05:24;;;;;;;8.00;2.87;;;23.30;99.90;;;;;;5036291;28;20491;-83
2022/07/26 07:07:50;;;;;;;7.78;2.30;;;23.30;99.90;;;;;;5053596;28;20399;-85
2022/07/26 07:10:16;;;;;;;7.28;2.60;;;23.20;99.90;;;;;;5035879;28;21059;-86
2022/07/26 07:12:43;;;;;;;9.03;2.50;;;23.00;99.90;;;;;;5053170;28;20429;-85
2022/07/26 07:15:10;;;;;;;5.55;2.45;;;23.00;99.90;;;;;;5036368;28;20743;-85
2022/07/26 07:17:36;;;;;;;7.75;2.50;;;23.50;99.90;;;;;;5035580;28;20387;-86
2022/07/26 07:20:04;;;;;;;6.47;2.38;;;23.80;99.90;;;;;;5035244;28;20386;-86
2022/07/26 07:22:30;;;;;;;9.07;2.22;;;24.50;99.90;;;;;;5034560;28;20408;-84
2022/07/26 07:24:55;;;;;;;6.45;2.30;;;24.90;99.90;;;;;;5035485;28;20629;-85
2022/07/26 07:27:21;;;;;;;5.83;1.97;;;24.90;99.90;;;;;;5029931;28;20397;-84
2022/07/26 07:29:47;;;;;;;6.15;2.30;;;24.70;99.90;;;;;;5042804;28;20567;-86
2022/07/26 07:32:12;;;;;;;7.03;2.70;;;24.70;99.90;;;;;;5074239;28;20366;-84
2022/07/26 07:34:38;;;;;;;6.90;2.10;;;24.60;99.90;;;;;;5059780;28;20372;-85
2022/07/26 07:37:04;;;;;;;6.65;2.47;;;24.50;99.90;;;;;;5054379;28;20405;-86
2022/07/26 07:39:30;;;;;;;5.53;2.23;;;24.40;99.90;;;;;;5036087;28;20399;-84
2022/07/26 07:41:56;;;;;;;8.27;2.38;;;24.20;99.90;;;;;;5020378;28;20428;-87
2022/07/26 07:44:22;;;;;;;5.97;2.35;;;24.20;99.90;;;;;;5016359;28;20421;-85
2022/07/26 07:46:48;;;;;;;5.90;2.03;;;24.00;99.90;;;;;;5031877;28;20401;-86
2022/07/26 07:49:14;;;;;;;7.35;2.22;;;24.00;99.90;;;;;;5032548;28;20377;-87
2022/07/26 07:51:40;;;;;;;6.63;2.33;;;24.10;99.90;;;;;;5047549;28;20427;-85
2022/07/26 07:54:06;;;;;;;8.10;2.55;;;24.00;99.90;;;;;;5046233;28;20409;-85
2022/07/26 07:56:33;;;;;;;4.47;2.07;;;23.90;99.90;;;;;;5063382;28;20459;-85
2022/07/26 07:58:59;;;;;;;5.55;2.20;;;23.90;99.90;;;;;;5072987;28;20397;-86
2022/07/26 08:01:28;;;;;;;5.80;1.85;;;24.00;99.90;;;;;;5051981;28;20410;-86
2022/07/26 08:03:53;;;;;;;6.38;2.30;;;24.00;99.90;;;;;;5044985;28;20392;-86
2022/07/26 08:06:19;;;;;;;4.68;1.80;;;24.30;99.90;;;;;;5050599;28;20829;-86
2022/07/26 08:08:45;;;;;;;5.30;1.90;;;24.60;99.90;;;;;;5050634;28;20380;-84
2022/07/26 08:11:11;;;;;;;5.30;1.93;;;24.80;99.90;;;;;;5052312;28;20384;-86
2022/07/26 08:13:36;;;;;;;5.05;1.85;;;25.00;99.90;;;;;;5070805;28;20713;-85
2022/07/26 08:16:02;;;;;;;3.97;1.87;;;25.10;99.90;;;;;;5071620;28;20374;-85
2022/07/26 08:18:28;;;;;;;4.88;1.90;;;25.40;99.90;;;;;;5066013;28;20394;-85
2022/07/26 08:20:54;;;;;;;6.32;2.50;;;25.20;99.90;;;;;;5053699;28;20435;-85
2022/07/26 08:23:23;;;;;;;4.75;2.10;;;24.90;99.90;;;;;;5053751;28;20752;-84
2022/07/26 08:25:49;;;;;;;5.27;1.60;;;25.00;99.90;;;;;;5071199;28;20394;-86
2022/07/26 08:28:15;;;;;;;5.03;1.70;;;24.90;99.90;;;;;;5071866;28;20875;-86
2022/07/26 08:30:41;;;;;;;4.38;1.70;;;24.70;99.90;;;;;;5050008;28;20415;-86
2022/07/26 08:33:07;;;;;;;6.57;1.70;;;24.90;99.90;;;;;;5046661;28;20922;-84
2022/07/26 08:35:33;;;;;;;5.15;1.88;;;25.30;99.90;;;;;;5048128;28;20413;-85
2022/07/26 08:37:59;;;;;;;4.65;1.67;;;25.50;99.90;;;;;;5049358;28;20974;-84
2022/07/26 08:40:24;;;;;;;3.47;1.50;;;25.70;99.90;;;;;;5051628;28;20380;-86
2022/07/26 08:42:52;;;;;;;4.93;2.05;;;25.90;99.90;;;;;;5050611;28;20376;-85
2022/07/26 08:45:25;;;;;;;8.30;1.92;;;26.00;99.90;;;;;;5050332;28;20470;-88
2022/07/26 08:47:52;;;;;;;8.10;2.08;;;25.80;99.90;;;;;;5050353;28;20410;-86
2022/07/26 08:50:18;;;;;;;6.37;2.07;;;25.20;99.90;;;;;;5044951;28;20420;-86
2022/07/26 08:52:44;;;;;;;6.10;2.03;;;24.80;99.90;;;;;;5030387;28;20401;-86
2022/07/26 08:55:14;;;;;;;7.30;2.13;;;24.50;99.90;;;;;;5030319;28;20432;-86
2022/07/26 08:57:40;;;;;;;4.82;1.90;;;24.50;99.90;;;;;;5036307;28;20468;-85
2022/07/26 09:00:28;;;;;;;5.30;2.00;;;24.90;99.90;;;;;;5050411;28;20474;-83
2022/07/26 09:02:54;;;;;;;7.07;2.08;;;25.30;99.90;;;;;;5065166;28;20395;-87
2022/07/26 09:05:33;;;;;;;6.25;2.30;;;25.50;99.90;;;;;;5062659;28;20399;-86
2022/07/26 09:08:00;;;;;;;5.35;2.00;;;25.80;99.90;;;;;;5046956;28;20396;-88
2022/07/26 09:10:26;;;;;;;6.80;2.30;;;26.10;99.90;;;;;;5032810;28;20950;-85
2022/07/26 09:12:54;;;;;;;4.40;1.85;;;26.10;99.90;;;;;;5031673;28;20747;-87
2022/07/26 09:15:24;;;;;;;5.07;2.00;;;26.10;99.90;;;;;;5039204;28;20746;-85
2022/07/26 09:17:54;;;;;;;7.38;2.28;;;26.30;99.90;;;;;;5045866;28;20404;-87
2022/07/26 09:20:28;;;;;;;6.70;2.20;;;26.00;99.90;;;;;;5056675;28;20383;-87
2022/07/26 09:23:02;;;;;;;7.57;2.10;;;25.60;99.90;;;;;;5068059;28;20433;-87
2022/07/26 09:25:36;;;;;;;6.40;1.80;;;25.30;99.90;;;;;;5049272;28;20395;-85
2022/07/26 09:28:24;;;;;;;5.25;1.98;;;24.90;99.90;;;;;;5049885;28;20858;-86
2022/07/26 09:30:55;;;;;;;6.40;1.90;;;24.90;99.90;;;;;;5049842;28;20972;-85
2022/07/26 09:33:20;;;;;;;6.32;1.85;;;25.20;99.90;;;;;;5050931;28;20375;-86
2022/07/26 09:36:02;;;;;;;4.80;1.80;;;25.50;99.90;;;;;;5056308;28;20382;-86
2022/07/26 09:39:02;;;;;;;3.05;1.40;;;25.70;99.90;;;;;;5069193;28;20428;-85
2022/07/26 09:41:28;;;;;;;4.78;1.65;;;25.80;99.90;;;;;;5051843;28;20378;-85
2022/07/26 09:44:00;;;;;;;4.20;1.90;;;25.60;99.90;;;;;;5069181;28;20382;-86
2022/07/26 09:46:30;;;;;;;4.63;1.60;;;25.50;99.90;;;;;;5058698;28;20411;-88
2022/07/26 09:48:59;;;;;;;7.88;2.17;;;25.30;99.90;;;;;;5056136;28;20471;-85
2022/07/26 09:51:39;;;;;;;4.63;1.80;;;25.20;99.90;;;;;;5048094;28;20734;-87
2022/07/26 09:54:05;;;;;;;4.78;1.80;;;25.20;99.90;;;;;;5042377;28;20463;-86
2022/07/26 09:56:45;;;;;;;6.10;1.67;;;25.30;99.90;;;;;;5029616;28;20464;-87
2022/07/26 09:59:16;;;;;;;8.15;1.98;;;25.00;99.90;;;;;;5031029;28;20385;-87
2022/07/26 10:01:43;;;;;;;5.50;1.63;;;24.80;99.90;;;;;;5030524;28;20439;-86
2022/07/26 10:04:09;;;;;;;3.63;1.83;;;24.70;99.90;;;;;;5037680;28;20388;-87
2022/07/26 10:06:34;;;;;;;7.10;2.07;;;24.30;99.90;;;;;;5050085;28;20406;-87
2022/07/26 10:09:01;;;;;;;5.38;1.60;;;24.30;99.90;;;;;;5049654;28;20388;-86
2022/07/26 10:11:34;;;;;;;3.67;1.60;;;24.30;99.90;;;;;;5050724;28;20386;-86
2022/07/26 10:14:31;;;;;;;3.40;1.48;;;24.60;99.90;;;;;;5044808;28;20386;-86
2022/07/26 10:16:58;;;;;;;7.32;1.90;;;25.20;99.90;;;;;;5029180;28;20382;-86
2022/07/26 10:19:40;;;;;;;6.57;2.00;;;25.70;99.90;;;;;;5029284;28;20385;-88
2022/07/26 10:22:26;;;;;;;6.07;1.80;;;26.20;99.90;;;;;;5047800;28;20842;-88
2022/07/26 16:40:35;;;;;;;1.67;0.70;;;22.10;99.90;;;;;;5118524;27;20729;-85
2022/07/26 16:43:01;;;;;;;2.07;0.70;;;22.00;99.90;;;;;;5084506;28;20394;-86
2022/07/26 16:45:26;;;;;;;2.55;0.70;;;22.20;99.90;;;;;;5085457;28;20394;-88
2022/07/26 16:47:52;;;;;;;2.28;0.75;;;22.30;99.90;;;;;;5084650;28;20456;-87
2022/07/26 16:50:18;;;;;;;2.10;0.70;;;22.30;99.90;;;;;;5085269;28;20374;-86
2022/07/26 16:52:44;;;;;;;1.57;0.70;;;22.30;99.90;;;;;;5084881;28;20845;-86
2022/07/26 16:55:10;;;;;;;1.53;0.87;;;22.40;99.90;;;;;;5084962;28;20435;-87
2022/07/26 16:57:39;;;;;;;1.02;0.70;;;22.30;99.90;;;;;;5084343;27;20377;-87
2022/07/26 17:00:10;;;;;;;4.28;1.10;;;22.10;99.90;;;;;;5084679;28;20405;-88
2022/07/26 17:02:36;;;;;;;1.37;0.73;;;22.00;99.90;;;;;;5086199;28;20859;-86
2022/07/26 17:05:03;;;;;;;0.98;0.50;;;22.00;99.90;;;;;;5084744;28;20407;-87
2022/07/26 17:07:30;;;;;;;1.45;0.95;;;22.00;99.90;;;;;;5085041;28;20396;-87
2022/07/26 17:09:56;;;;;;;1.95;1.00;;;22.00;99.90;;;;;;5086773;28;20885;-86
2022/07/26 17:12:23;;;;;;;2.58;0.80;;;22.00;99.90;;;;;;5084913;28;20397;-86
2022/07/26 17:14:48;;;;;;;1.95;1.00;;;21.90;99.90;;;;;;5084374;28;20405;-87
2022/07/26 17:17:21;;;;;;;1.33;0.70;;;21.70;99.90;;;;;;5085472;28;20397;-87
2022/07/26 17:19:46;;;;;;;3.53;0.85;;;21.70;99.90;;;;;;5084013;28;20428;-87
2022/07/26 17:22:12;;;;;;;1.40;0.70;;;21.70;99.90;;;;;;5085034;28;20883;-84
2022/07/26 17:24:38;;;;;;;2.75;0.80;;;21.70;99.90;;;;;;5084462;28;20381;-85
2022/07/26 17:27:04;;;;;;;2.15;0.95;;;21.80;99.90;;;;;;5085905;28;20386;-86
2022/07/26 17:29:29;;;;;;;1.63;0.73;;;21.80;99.90;;;;;;5117782;27;20949;-86
2022/07/26 17:31:55;;;;;;;1.85;0.90;;;21.90;99.90;;;;;;5083726;28;20382;-87
2022/07/26 17:34:21;;;;;;;2.80;1.20;;;22.00;99.90;;;;;;5084243;28;20429;-85
2022/07/26 17:36:46;;;;;;;1.65;0.77;;;22.00;99.90;;;;;;5085091;28;20370;-87
2022/07/26 17:39:12;;;;;;;3.60;0.80;;;21.80;99.90;;;;;;5083238;28;20493;-86
2022/07/26 17:41:38;;;;;;;2.00;0.80;;;21.70;99.90;;;;;;5117848;27;20384;-85
2022/07/26 17:44:04;;;;;;;1.50;0.80;;;21.60;99.90;;;;;;5084275;28;20451;-86
2022/07/26 17:46:33;;;;;;;4.20;1.10;;;21.50;99.90;;;;;;5085389;28;20369;-86
2022/07/26 17:48:59;;;;;;;1.67;0.82;;;21.50;99.90;;;;;;5085349;28;20556;-86
2022/07/26 17:51:24;;;;;;;2.10;0.90;;;21.60;99.90;;;;;;5073608;28;20461;-85
2022/07/26 17:53:51;;;;;;;1.77;0.90;;;21.60;99.90;;;;;;5069569;28;20484;-84
2022/07/26 17:56:17;;;;;;;2.67;0.90;;;21.60;99.90;;;;;;5071862;28;20374;-83
2022/07/26 17:58:42;;;;;;;4.00;1.10;;;21.60;99.90;;;;;;5070370;28;20513;-86
2022/07/26 18:01:08;;;;;;;2.67;1.20;;;21.50;99.90;;;;;;5070736;28;20381;-87
2022/07/26 18:03:35;;;;;;;3.00;1.17;;;21.50;99.90;;;;;;5070457;28;20485;-87
2022/07/26 18:06:01;;;;;;;2.65;0.90;;;21.30;99.90;;;;;;5071851;28;20444;-87
2022/07/26 18:08:27;;;;;;;2.22;0.80;;;21.20;99.90;;;;;;5071415;28;20370;-87
2022/07/26 18:10:57;;;;;;;2.50;0.98;;;21.20;99.90;;;;;;5071478;28;20450;-87
2022/07/26 18:13:24;;;;;;;2.28;0.80;;;21.00;99.90;;;;;;5069574;28;20381;-86
2022/07/26 18:15:50;;;;;;;4.38;1.10;;;20.90;99.90;;;;;;5070520;28;20875;-87
2022/07/26 18:18:18;;;;;;;2.83;0.93;;;20.80;99.90;;;;;;5072038;28;20366;-85
2022/07/26 18:20:44;;;;;;;2.78;0.93;;;20.80;99.90;;;;;;5068874;28;20660;-84
2022/07/26 18:23:10;;;;;;;4.65;1.23;;;20.70;99.90;;;;;;5070796;28;20382;-86
2022/07/26 18:25:37;;;;;;;2.47;0.82;;;20.70;99.90;;;;;;5069385;28;20877;-86
2022/07/26 18:28:04;;;;;;;2.63;0.87;;;20.70;99.90;;;;;;5069997;28;20424;-86
2022/07/26 18:30:30;;;;;;;3.15;1.30;;;20.60;99.90;;;;;;5070991;28;20382;-87
2022/07/26 18:33:00;;;;;;;3.03;1.25;;;20.60;99.90;;;;;;5069657;28;20867;-88
2022/07/26 18:35:25;;;;;;;2.92;1.17;;;20.50;99.90;;;;;;5070564;28;20379;-87
2022/07/26 18:37:51;;;;;;;2.47;0.90;;;20.60;99.90;;;;;;5069370;28;20362;-88
2022/07/26 18:40:22;;;;;;;2.63;1.00;;;20.60;99.90;;;;;;5069349;28;21006;-86
2022/07/26 18:42:47;;;;;;;2.67;1.00;;;20.50;99.90;;;;;;5070301;28;20468;-86
2022/07/26 18:45:13;;;;;;;2.10;1.10;;;20.50;99.90;;;;;;5070551;28;20493;-86
2022/07/26 18:47:40;;;;;;;3.50;1.30;;;20.40;99.90;;;;;;5069388;28;20378;-87
2022/07/26 18:50:08;;;;;;;3.35;1.10;;;20.30;99.90;;;;;;5069114;28;20384;-87
2022/07/26 18:52:33;;;;;;;3.38;0.93;;;20.20;99.90;;;;;;5068814;28;20382;-87
2022/07/26 18:55:05;;;;;;;3.20;1.05;;;20.10;99.90;;;;;;5070989;28;20410;-87
2022/07/26 18:57:31;;;;;;;2.33;0.93;;;20.00;99.90;;;;;;5070643;28;20803;-87